Time;durP1;ratioP1;P1;durP2;ratioP2;P2;SDS_P1;SDS_P2;PMS_P1;PMS_P2;Temp;Humidity;BMP_temperature;BMP_pressure;BME280_temperature;BME280_humidity;BME280_pressure;Samples;Min_cycle;Max_cycle;Signal;HPM_P1;HPM_P2
2023/07/02 00:01:31;;;;;;;0.10;0.10;;;17.40;99.90;;;;;;5020541;28;20186;-82
2023/07/02 00:03:57;;;;;;;0.10;0.10;;;17.40;99.90;;;;;;5020926;28;20202;-82
2023/07/02 00:06:23;;;;;;;0.00;0.00;;;17.40;99.90;;;;;;5021322;28;20904;-82
2023/07/02 00:08:48;;;;;;;0.10;0.10;;;17.40;99.90;;;;;;5022321;28;20728;-82
2023/07/02 00:11:15;;;;;;;0.10;0.10;;;17.30;99.90;;;;;;5021589;28;20644;-82
2023/07/02 00:13:42;;;;;;;0.10;0.10;;;17.30;99.90;;;;;;5020821;28;20228;-82
2023/07/02 00:16:07;;;;;;;0.10;0.10;;;17.30;99.90;;;;;;5019793;28;20186;-81
2023/07/02 00:18:34;;;;;;;0.10;0.10;;;17.20;99.90;;;;;;5020886;28;20205;-82
2023/07/02 00:21:02;;;;;;;0.10;0.10;;;17.10;99.90;;;;;;5018595;28;20300;-81
2023/07/02 00:23:29;;;;;;;0.10;0.10;;;17.10;99.90;;;;;;5019697;28;20538;-82
2023/07/02 00:25:55;;;;;;;0.10;0.10;;;17.00;99.90;;;;;;5022187;28;20205;-82
2023/07/02 00:28:20;;;;;;;0.10;0.10;;;16.90;99.90;;;;;;5021602;28;20190;-82
2023/07/02 00:30:46;;;;;;;0.10;0.10;;;16.90;99.90;;;;;;5019772;28;20193;-82
2023/07/02 00:33:11;;;;;;;0.10;0.10;;;16.80;99.90;;;;;;5021219;28;20249;-82
2023/07/02 00:35:37;;;;;;;0.10;0.10;;;16.80;99.90;;;;;;5021273;28;21049;-82
2023/07/02 00:38:03;;;;;;;0.10;0.10;;;16.80;99.90;;;;;;5020263;28;20187;-81
2023/07/02 00:40:28;;;;;;;0.10;0.10;;;16.80;99.90;;;;;;5019274;28;20186;-82
2023/07/02 00:42:54;;;;;;;0.10;0.10;;;16.70;99.90;;;;;;5020234;28;20194;-81
2023/07/02 00:45:19;;;;;;;0.10;0.10;;;16.70;99.90;;;;;;5021008;28;20264;-82
2023/07/02 00:47:45;;;;;;;0.10;0.10;;;16.70;99.90;;;;;;5023293;28;20329;-82
2023/07/02 00:50:11;;;;;;;0.10;0.10;;;16.70;99.90;;;;;;5019175;28;20190;-81
2023/07/02 00:52:38;;;;;;;0.10;0.10;;;16.60;99.90;;;;;;5020069;28;20210;-82
2023/07/02 00:55:03;;;;;;;0.10;0.10;;;16.60;99.90;;;;;;5022219;28;20202;-82
2023/07/02 00:57:29;;;;;;;0.10;0.10;;;16.60;99.90;;;;;;5020478;28;20313;-81
2023/07/02 01:00:02;;;;;;;0.10;0.10;;;16.50;99.90;;;;;;5022476;28;20205;-82
2023/07/02 01:02:29;;;;;;;0.10;0.10;;;16.50;99.90;;;;;;5020878;28;20190;-82
2023/07/02 01:04:58;;;;;;;0.10;0.10;;;16.40;99.90;;;;;;5019855;28;20233;-82
2023/07/02 01:07:23;;;;;;;0.10;0.10;;;16.40;99.90;;;;;;5018786;28;20190;-82
2023/07/02 01:09:49;;;;;;;0.10;0.10;;;16.40;99.90;;;;;;5019088;28;20581;-82
2023/07/02 01:12:17;;;;;;;0.10;0.10;;;16.30;99.90;;;;;;5020572;28;20202;-82
2023/07/02 01:14:47;;;;;;;0.10;0.10;;;16.40;99.90;;;;;;5021325;28;20549;-82
2023/07/02 01:17:19;;;;;;;0.10;0.10;;;16.30;99.90;;;;;;5021254;28;20178;-82
2023/07/02 01:19:52;;;;;;;0.10;0.10;;;16.30;99.90;;;;;;5017387;28;20203;-82
2023/07/02 01:22:23;;;;;;;0.07;0.07;;;16.20;99.90;;;;;;5019688;28;20178;-82
2023/07/02 01:24:49;;;;;;;0.10;0.10;;;16.10;99.90;;;;;;5018722;28;20582;-82
2023/07/02 01:27:15;;;;;;;0.10;0.10;;;16.00;99.90;;;;;;5019167;28;20219;-82
2023/07/02 01:29:42;;;;;;;0.10;0.10;;;16.10;99.90;;;;;;5022615;28;20373;-82
2023/07/02 01:32:08;;;;;;;0.10;0.10;;;16.10;99.90;;;;;;5018326;28;20213;-82
2023/07/02 01:34:34;;;;;;;0.10;0.10;;;15.90;99.90;;;;;;5017250;28;20202;-82
2023/07/02 01:37:00;;;;;;;0.10;0.10;;;15.80;99.90;;;;;;5020954;28;20394;-82
2023/07/02 01:39:26;;;;;;;0.10;0.10;;;16.00;99.90;;;;;;5014633;28;20190;-82
2023/07/02 01:41:53;;;;;;;0.03;0.03;;;16.00;99.90;;;;;;5014630;28;20201;-82
2023/07/02 01:44:20;;;;;;;0.10;0.10;;;16.00;99.90;;;;;;5018997;28;20412;-82
2023/07/02 01:46:48;;;;;;;0.10;0.10;;;16.00;99.90;;;;;;5032182;28;20206;-82
2023/07/02 01:49:15;;;;;;;0.10;0.10;;;16.00;99.90;;;;;;5020455;28;20656;-82
2023/07/02 01:51:40;;;;;;;0.10;0.10;;;15.90;99.90;;;;;;5021604;28;20214;-82
2023/07/02 01:54:06;;;;;;;0.10;0.10;;;15.80;99.90;;;;;;5026174;28;20206;-82
2023/07/02 01:56:31;;;;;;;0.10;0.10;;;15.80;99.90;;;;;;5020775;28;20237;-82
2023/07/02 01:58:57;;;;;;;0.10;0.10;;;15.70;99.90;;;;;;5021961;28;20233;-82
2023/07/02 02:01:23;;;;;;;0.10;0.10;;;15.60;99.90;;;;;;5021719;28;20746;-82
2023/07/02 02:03:48;;;;;;;0.10;0.10;;;15.60;99.90;;;;;;5023890;28;20330;-82
2023/07/02 02:06:14;;;;;;;0.10;0.10;;;15.50;99.90;;;;;;5024660;28;20208;-82
2023/07/02 02:08:39;;;;;;;0.10;0.10;;;15.40;99.90;;;;;;5024527;28;20603;-82
2023/07/02 02:11:05;;;;;;;0.07;0.07;;;15.40;99.90;;;;;;5024110;28;20242;-82
2023/07/02 02:13:30;;;;;;;0.10;0.10;;;15.40;99.90;;;;;;5020969;28;20213;-82
2023/07/02 02:15:57;;;;;;;0.10;0.10;;;15.40;99.90;;;;;;5024147;28;20324;-82
2023/07/02 02:18:22;;;;;;;0.10;0.10;;;15.30;99.90;;;;;;5022874;28;20186;-82
2023/07/02 02:20:48;;;;;;;0.10;0.10;;;15.30;99.90;;;;;;5021404;28;20197;-82
2023/07/02 02:23:13;;;;;;;0.10;0.10;;;15.30;99.90;;;;;;5022591;28;20532;-82
2023/07/02 02:25:39;;;;;;;0.10;0.10;;;15.30;99.90;;;;;;5021028;28;20221;-82
2023/07/02 02:28:04;;;;;;;0.10;0.10;;;15.20;99.90;;;;;;5025319;28;20552;-81
2023/07/02 02:30:30;;;;;;;0.10;0.10;;;15.20;99.90;;;;;;5023986;28;20187;-82
2023/07/02 02:32:55;;;;;;;0.10;0.10;;;15.20;99.90;;;;;;5023089;28;20206;-82
2023/07/02 02:35:21;;;;;;;0.10;0.10;;;15.20;99.90;;;;;;5020174;28;20283;-82
2023/07/02 02:37:47;;;;;;;0.10;0.10;;;15.20;99.90;;;;;;5021263;28;21164;-82
2023/07/02 02:40:13;;;;;;;0.10;0.10;;;15.30;99.90;;;;;;5024651;28;20232;-82
2023/07/02 02:42:39;;;;;;;0.10;0.10;;;15.30;99.90;;;;;;5022477;28;20200;-82
2023/07/02 02:45:05;;;;;;;0.07;0.07;;;15.40;99.90;;;;;;5023538;28;20205;-82
2023/07/02 02:47:31;;;;;;;0.10;0.10;;;15.30;99.90;;;;;;5018489;28;20185;-82
2023/07/02 02:49:56;;;;;;;0.10;0.10;;;15.40;99.90;;;;;;5021613;28;20193;-82
2023/07/02 02:52:22;;;;;;;0.10;0.10;;;15.20;99.90;;;;;;5023850;28;21312;-82
2023/07/02 02:54:47;;;;;;;0.10;0.10;;;15.30;99.90;;;;;;5024198;28;20321;-82
2023/07/02 02:57:13;;;;;;;0.10;0.10;;;15.40;99.90;;;;;;5020558;28;20204;-82
2023/07/02 02:59:39;;;;;;;0.10;0.10;;;15.40;99.90;;;;;;5024541;28;20981;-82
2023/07/02 03:02:04;;;;;;;0.10;0.10;;;15.40;99.90;;;;;;5024021;28;20287;-81
2023/07/02 03:04:30;;;;;;;0.10;0.10;;;15.50;99.90;;;;;;5022781;28;20243;-81
2023/07/02 03:06:56;;;;;;;0.10;0.10;;;15.40;99.90;;;;;;5018404;28;21252;-81
2023/07/02 03:09:21;;;;;;;0.10;0.10;;;15.40;99.90;;;;;;5020084;28;20200;-81
2023/07/02 03:11:47;;;;;;;0.10;0.10;;;15.30;99.90;;;;;;5017605;28;20772;-81
2023/07/02 03:14:14;;;;;;;0.10;0.10;;;15.50;99.90;;;;;;5024454;28;20325;-81
2023/07/02 03:16:40;;;;;;;0.10;0.10;;;15.50;99.90;;;;;;5023487;28;20235;-81
2023/07/02 03:19:05;;;;;;;0.10;0.10;;;15.70;99.90;;;;;;5020923;28;20277;-81
2023/07/02 03:21:32;;;;;;;0.10;0.10;;;15.70;99.90;;;;;;5018290;28;20189;-81
2023/07/02 03:23:57;;;;;;;0.10;0.10;;;15.60;99.90;;;;;;5021726;28;20675;-81
2023/07/02 03:26:23;;;;;;;0.10;0.10;;;15.80;99.90;;;;;;5021147;28;20200;-81
2023/07/02 03:28:49;;;;;;;0.10;0.10;;;15.90;99.90;;;;;;5021992;28;20185;-81
2023/07/02 03:31:14;;;;;;;0.10;0.10;;;15.90;99.90;;;;;;5022627;28;20206;-81
2023/07/02 03:33:40;;;;;;;0.10;0.10;;;15.90;99.90;;;;;;5021091;28;20194;-81
2023/07/02 03:36:06;;;;;;;0.10;0.10;;;16.00;99.90;;;;;;5019836;28;20186;-81
2023/07/02 03:38:32;;;;;;;0.10;0.10;;;15.90;99.90;;;;;;5022247;28;20281;-81
2023/07/02 03:40:57;;;;;;;0.73;0.73;;;15.90;99.90;;;;;;5019316;28;20648;-81
2023/07/02 03:43:24;;;;;;;0.10;0.10;;;15.90;99.90;;;;;;5023128;28;20191;-80
2023/07/02 03:45:51;;;;;;;0.10;0.10;;;16.00;99.90;;;;;;5022493;28;20195;-81
2023/07/02 03:48:16;;;;;;;0.10;0.10;;;16.00;99.90;;;;;;5021793;28;20562;-81
2023/07/02 03:50:42;;;;;;;0.10;0.10;;;16.10;99.90;;;;;;5019456;28;20190;-81
2023/07/02 03:53:07;;;;;;;0.10;0.10;;;16.30;99.90;;;;;;5018637;28;20193;-81
2023/07/02 03:55:33;;;;;;;0.10;0.10;;;16.20;99.90;;;;;;5019431;28;20199;-81
2023/07/02 03:57:58;;;;;;;0.10;0.10;;;16.20;99.90;;;;;;5022546;28;20174;-81
2023/07/02 04:00:24;;;;;;;0.10;0.10;;;16.20;99.90;;;;;;5021382;28;20186;-81
2023/07/02 04:02:49;;;;;;;0.00;0.00;;;16.30;99.90;;;;;;5021755;28;20647;-80
2023/07/02 04:05:15;;;;;;;0.10;0.10;;;16.20;99.90;;;;;;5021643;28;20214;-81
2023/07/02 04:07:40;;;;;;;0.10;0.10;;;16.20;99.90;;;;;;5029412;28;20187;-81
2023/07/02 04:10:07;;;;;;;1.00;1.00;;;16.30;99.90;;;;;;5023391;28;20206;-81
2023/07/02 04:12:32;;;;;;;0.10;0.10;;;16.30;99.90;;;;;;5019066;28;20313;-80
2023/07/02 04:14:58;;;;;;;0.10;0.10;;;16.40;99.90;;;;;;5020829;28;20347;-81
2023/07/02 04:17:23;;;;;;;0.10;0.10;;;16.40;99.90;;;;;;5020127;28;20174;-81
2023/07/02 04:19:49;;;;;;;0.10;0.10;;;16.40;99.90;;;;;;5021448;28;20722;-80
2023/07/02 04:22:14;;;;;;;0.10;0.10;;;16.40;99.90;;;;;;5021045;28;20190;-80
2023/07/02 04:24:40;;;;;;;0.10;0.10;;;16.40;99.90;;;;;;5018676;28;20206;-80
2023/07/02 04:27:05;;;;;;;0.10;0.10;;;16.40;99.90;;;;;;5017590;28;20190;-80
2023/07/02 04:29:31;;;;;;;0.10;0.10;;;16.50;99.90;;;;;;5019178;28;20190;-80
2023/07/02 04:31:56;;;;;;;0.10;0.10;;;16.50;99.90;;;;;;5017799;28;21899;-81
2023/07/02 04:34:22;;;;;;;0.10;0.10;;;16.50;99.90;;;;;;5018433;28;20206;-81
2023/07/02 04:36:47;;;;;;;0.10;0.10;;;16.50;99.90;;;;;;5021146;28;20274;-80
2023/07/02 04:39:13;;;;;;;0.10;0.10;;;16.70;99.90;;;;;;5017487;28;20685;-80
2023/07/02 04:41:38;;;;;;;0.10;0.10;;;16.70;99.90;;;;;;5017492;28;20563;-80
2023/07/02 04:44:04;;;;;;;0.10;0.10;;;16.80;99.90;;;;;;5020677;28;20217;-80
2023/07/02 04:46:30;;;;;;;0.10;0.10;;;16.80;99.90;;;;;;5014562;28;20197;-80
2023/07/02 04:48:55;;;;;;;0.10;0.10;;;16.90;99.90;;;;;;5010027;28;20194;-80
2023/07/02 04:51:21;;;;;;;0.10;0.10;;;16.90;99.90;;;;;;5015912;28;20782;-81
2023/07/02 04:53:47;;;;;;;0.10;0.10;;;16.90;99.90;;;;;;5017477;28;20213;-81
2023/07/02 04:56:12;;;;;;;0.10;0.10;;;17.00;99.90;;;;;;5014091;28;20182;-80
2023/07/02 04:58:38;;;;;;;0.10;0.10;;;17.00;99.90;;;;;;5016358;28;20198;-81
2023/07/02 05:01:04;;;;;;;0.10;0.10;;;17.00;99.90;;;;;;5016478;28;20193;-81
2023/07/02 05:03:30;;;;;;;0.10;0.10;;;17.00;99.90;;;;;;5019058;28;20193;-81
2023/07/02 05:05:55;;;;;;;0.10;0.10;;;17.00;99.90;;;;;;5010765;28;20201;-81
2023/07/02 05:08:21;;;;;;;0.10;0.10;;;17.00;99.90;;;;;;5017659;28;20270;-81
2023/07/02 05:10:46;;;;;;;0.10;0.10;;;16.90;99.90;;;;;;5014813;28;20189;-82
2023/07/02 05:13:12;;;;;;;0.10;0.10;;;16.90;99.90;;;;;;5019624;28;20293;-81
2023/07/02 05:15:37;;;;;;;0.10;0.10;;;17.00;99.90;;;;;;5025345;28;20272;-81
2023/07/02 05:18:03;;;;;;;0.10;0.10;;;17.00;99.90;;;;;;5025367;28;20178;-83
2023/07/02 05:20:28;;;;;;;0.10;0.10;;;17.20;99.90;;;;;;5023389;28;20244;-83
2023/07/02 05:22:54;;;;;;;0.10;0.10;;;17.30;99.90;;;;;;5017413;28;20182;-82
2023/07/02 05:25:20;;;;;;;0.10;0.10;;;17.50;99.90;;;;;;5022454;28;20552;-82
2023/07/02 05:27:45;;;;;;;0.10;0.10;;;17.70;99.90;;;;;;5024497;28;20232;-82
2023/07/02 05:30:11;;;;;;;0.10;0.10;;;17.90;99.90;;;;;;5031272;28;20304;-84
2023/07/02 05:32:39;;;;;;;0.10;0.10;;;18.10;99.90;;;;;;5023846;28;20225;-81
2023/07/02 05:35:04;;;;;;;0.10;0.10;;;18.20;99.90;;;;;;5027380;28;20193;-82
2023/07/02 05:37:30;;;;;;;0.10;0.10;;;18.30;99.90;;;;;;5023214;28;20200;-82
2023/07/02 05:39:56;;;;;;;0.10;0.10;;;18.40;99.90;;;;;;5027588;28;20989;-82
2023/07/02 05:42:21;;;;;;;0.10;0.10;;;18.50;99.90;;;;;;5028604;28;20956;-82
2023/07/02 05:44:47;;;;;;;0.10;0.10;;;18.60;99.90;;;;;;5028560;28;20730;-82
2023/07/02 05:47:12;;;;;;;0.10;0.10;;;18.80;99.90;;;;;;5029072;28;20679;-82
2023/07/02 05:49:38;;;;;;;0.10;0.10;;;18.90;99.90;;;;;;5026683;28;20276;-84
2023/07/02 05:52:03;;;;;;;0.10;0.10;;;19.00;99.90;;;;;;5028876;28;20292;-81
2023/07/02 05:54:29;;;;;;;0.10;0.10;;;19.20;99.90;;;;;;5029397;28;20206;-81
2023/07/02 05:56:55;;;;;;;0.10;0.10;;;19.20;99.90;;;;;;5028922;28;20183;-85
2023/07/02 05:59:21;;;;;;;0.10;0.10;;;19.20;99.90;;;;;;5030116;28;20191;-84
2023/07/02 06:01:47;;;;;;;0.10;0.10;;;19.20;99.90;;;;;;5030166;28;20182;-81
2023/07/02 06:04:12;;;;;;;0.10;0.10;;;19.10;99.90;;;;;;5040677;28;20217;-82
2023/07/02 06:06:37;;;;;;;0.10;0.10;;;19.20;99.90;;;;;;5030774;28;20194;-81
2023/07/02 06:09:03;;;;;;;0.10;0.10;;;19.30;99.90;;;;;;5034395;28;20189;-82
2023/07/02 06:11:29;;;;;;;0.10;0.10;;;19.30;99.90;;;;;;5031869;28;20538;-84
2023/07/02 06:13:55;;;;;;;0.10;0.10;;;19.30;99.90;;;;;;5029654;28;20224;-83
2023/07/02 06:16:20;;;;;;;0.10;0.10;;;19.30;99.90;;;;;;5024762;28;20183;-82
2023/07/02 06:18:46;;;;;;;0.10;0.10;;;19.20;99.90;;;;;;5025078;28;20176;-81
2023/07/02 06:21:11;;;;;;;0.10;0.10;;;19.30;99.90;;;;;;5025264;28;20230;-81
2023/07/02 06:23:42;;;;;;;0.10;0.10;;;19.50;99.90;;;;;;5027370;28;20977;-81
2023/07/02 06:26:07;;;;;;;0.10;0.10;;;19.70;99.90;;;;;;5019158;28;20207;-82
2023/07/02 06:28:33;;;;;;;0.10;0.10;;;20.00;99.90;;;;;;5019595;28;20182;-80
2023/07/02 06:30:58;;;;;;;0.10;0.10;;;20.30;99.90;;;;;;5015569;28;20577;-83
2023/07/02 06:33:26;;;;;;;0.10;0.10;;;20.40;99.90;;;;;;5022044;28;20198;-82
2023/07/02 06:35:52;;;;;;;0.10;0.10;;;20.30;99.90;;;;;;5019595;28;20202;-82
2023/07/02 06:38:17;;;;;;;0.10;0.10;;;20.10;99.90;;;;;;5027331;28;20225;-82
2023/07/02 06:40:43;;;;;;;0.10;0.10;;;20.20;99.90;;;;;;5021921;28;20190;-81
2023/07/02 06:43:09;;;;;;;0.10;0.10;;;20.50;99.90;;;;;;5024742;28;20241;-82
2023/07/02 06:45:35;;;;;;;0.10;0.10;;;20.60;99.90;;;;;;5024356;28;20251;-81
2023/07/02 06:48:01;;;;;;;0.10;0.10;;;20.60;99.90;;;;;;5023045;28;20202;-81
2023/07/02 06:50:26;;;;;;;0.10;0.10;;;20.40;99.90;;;;;;5023166;28;20196;-82
2023/07/02 06:52:52;;;;;;;0.10;0.10;;;20.30;99.90;;;;;;5021594;28;20222;-82
2023/07/02 06:55:17;;;;;;;0.10;0.10;;;20.30;99.90;;;;;;5023530;28;20212;-83
2023/07/02 06:57:47;;;;;;;0.10;0.10;;;20.50;99.90;;;;;;5023662;28;20201;-82
2023/07/02 07:00:13;;;;;;;0.10;0.10;;;20.90;99.90;;;;;;5023052;28;20212;-82
2023/07/02 07:02:39;;;;;;;0.10;0.10;;;21.10;99.90;;;;;;5021850;28;20198;-82
2023/07/02 07:05:05;;;;;;;0.10;0.10;;;21.20;99.90;;;;;;5023036;28;20229;-82
2023/07/02 07:07:31;;;;;;;0.10;0.10;;;21.20;99.90;;;;;;5023270;28;20190;-82
2023/07/02 07:09:57;;;;;;;0.17;0.17;;;20.90;99.90;;;;;;5024035;28;20190;-82
2023/07/02 07:12:22;;;;;;;0.10;0.10;;;20.80;99.90;;;;;;5020518;28;20213;-83
2023/07/02 07:14:48;;;;;;;0.10;0.10;;;20.80;99.90;;;;;;5021905;28;20206;-82
2023/07/02 07:17:13;;;;;;;0.10;0.10;;;20.80;99.90;;;;;;5022610;28;21373;-82
2023/07/02 07:19:39;;;;;;;0.10;0.10;;;20.90;99.90;;;;;;5023075;28;20190;-82
2023/07/02 07:22:05;;;;;;;0.10;0.10;;;21.10;99.90;;;;;;5023963;28;20186;-83
2023/07/02 07:24:30;;;;;;;0.10;0.10;;;21.20;99.90;;;;;;5023668;28;20217;-82
2023/07/02 07:26:55;;;;;;;0.10;0.10;;;21.20;99.90;;;;;;5019935;28;20186;-82
2023/07/02 07:29:22;;;;;;;0.10;0.10;;;21.30;99.90;;;;;;5021839;28;20190;-81
2023/07/02 07:31:47;;;;;;;0.10;0.10;;;21.30;99.90;;;;;;5018178;28;20214;-82
2023/07/02 07:34:13;;;;;;;0.10;0.10;;;21.50;99.90;;;;;;5024030;28;20701;-81
2023/07/02 07:36:38;;;;;;;0.10;0.10;;;21.30;99.90;;;;;;5033814;28;20178;-81
2023/07/02 07:39:04;;;;;;;0.10;0.10;;;21.40;99.90;;;;;;5027955;28;20689;-81
2023/07/02 07:41:29;;;;;;;0.10;0.10;;;21.40;99.90;;;;;;5025981;28;20194;-82
2023/07/02 07:43:55;;;;;;;0.10;0.10;;;21.40;99.90;;;;;;5022562;28;20209;-83
2023/07/02 07:46:20;;;;;;;0.10;0.10;;;21.60;99.90;;;;;;5022661;28;20265;-81
2023/07/02 07:48:46;;;;;;;0.10;0.10;;;22.10;99.90;;;;;;5021882;28;20243;-82
2023/07/02 07:51:11;;;;;;;0.10;0.10;;;22.10;99.90;;;;;;5018460;28;20210;-82
2023/07/02 07:53:40;;;;;;;0.10;0.10;;;22.40;99.90;;;;;;5022841;28;20764;-82
2023/07/02 07:56:06;;;;;;;0.10;0.10;;;22.40;99.90;;;;;;5024178;28;20213;-81
2023/07/02 07:58:34;;;;;;;0.10;0.10;;;22.80;99.90;;;;;;5022649;28;20648;-81
2023/07/02 08:00:59;;;;;;;0.10;0.10;;;22.80;99.90;;;;;;5015952;28;20305;-81
2023/07/02 08:03:25;;;;;;;0.10;0.10;;;22.80;99.90;;;;;;5021567;28;20191;-81
2023/07/02 08:05:50;;;;;;;0.10;0.10;;;22.80;99.90;;;;;;5021783;28;20225;-81
2023/07/02 08:08:16;;;;;;;0.10;0.10;;;22.70;99.90;;;;;;5009613;28;20196;-81
2023/07/02 08:10:42;;;;;;;0.10;0.10;;;22.50;99.90;;;;;;5005000;28;20191;-81
2023/07/02 08:13:08;;;;;;;0.10;0.10;;;22.60;99.90;;;;;;5019060;28;20233;-81
2023/07/02 08:15:34;;;;;;;0.10;0.10;;;22.50;99.90;;;;;;5017909;28;20695;-81
2023/07/02 08:17:59;;;;;;;0.10;0.10;;;22.60;99.90;;;;;;5019927;28;20199;-81
2023/07/02 08:20:25;;;;;;;0.10;0.10;;;22.70;99.90;;;;;;5016761;28;20197;-81
2023/07/02 08:22:51;;;;;;;0.10;0.10;;;22.60;99.90;;;;;;5002381;28;20184;-81
2023/07/02 08:25:17;;;;;;;0.10;0.10;;;22.70;99.90;;;;;;5007852;28;20206;-81
2023/07/02 08:27:43;;;;;;;0.10;0.10;;;23.00;99.90;;;;;;5009426;28;20194;-81
2023/07/02 08:30:10;;;;;;;0.10;0.10;;;23.00;99.90;;;;;;5020114;28;20239;-81
2023/07/02 08:32:36;;;;;;;0.10;0.10;;;23.30;99.90;;;;;;5012102;28;22836;-82
2023/07/02 08:35:01;;;;;;;0.10;0.10;;;23.60;99.90;;;;;;5018654;28;20290;-81
2023/07/02 08:37:27;;;;;;;0.10;0.10;;;23.90;99.90;;;;;;5017093;28;20178;-81
2023/07/02 08:39:52;;;;;;;0.10;0.10;;;24.10;99.90;;;;;;5017255;28;20190;-81
2023/07/02 08:42:19;;;;;;;0.10;0.10;;;23.50;99.90;;;;;;5010773;28;20263;-81
2023/07/02 08:44:48;;;;;;;0.10;0.10;;;23.20;99.90;;;;;;5018306;28;20234;-81
2023/07/02 08:47:13;;;;;;;0.10;0.10;;;23.10;99.90;;;;;;5016569;28;20277;-81
2023/07/02 08:49:39;;;;;;;0.10;0.10;;;22.80;99.90;;;;;;5016470;28;20266;-80
2023/07/02 08:52:05;;;;;;;0.10;0.10;;;22.80;99.90;;;;;;5023880;28;20272;-80
2023/07/02 08:54:31;;;;;;;13.73;8.80;;;22.80;99.90;;;;;;5023088;28;20244;-81
2023/07/02 08:56:57;;;;;;;0.10;0.10;;;22.70;99.90;;;;;;5019038;28;20251;-81
2023/07/02 08:59:23;;;;;;;0.10;0.10;;;22.60;99.90;;;;;;5022460;28;20703;-80
2023/07/02 09:01:50;;;;;;;0.10;0.10;;;22.50;99.90;;;;;;5020581;28;20270;-81
2023/07/02 09:04:26;;;;;;;0.10;0.10;;;22.70;99.90;;;;;;5020921;28;20207;-80
2023/07/02 09:07:12;;;;;;;0.10;0.10;;;22.80;99.90;;;;;;5019372;28;20205;-81
2023/07/02 09:09:48;;;;;;;0.93;0.93;;;22.60;99.90;;;;;;5010037;28;20191;-81
2023/07/02 09:12:31;;;;;;;0.10;0.10;;;22.50;99.90;;;;;;5006419;28;20209;-81
2023/07/02 09:14:58;;;;;;;0.10;0.10;;;22.70;99.90;;;;;;5022225;28;20221;-80
2023/07/02 09:17:31;;;;;;;0.10;0.10;;;22.90;99.90;;;;;;5017524;28;20186;-81
2023/07/02 09:20:00;;;;;;;0.10;0.10;;;23.10;99.90;;;;;;5031752;28;20255;-81
2023/07/02 09:22:26;;;;;;;0.10;0.10;;;23.40;99.90;;;;;;5016704;28;20191;-80
2023/07/02 09:24:54;;;;;;;0.10;0.10;;;23.40;99.90;;;;;;5013768;28;20694;-80
2023/07/02 09:27:20;;;;;;;0.10;0.10;;;23.20;99.90;;;;;;5014163;28;20721;-80
2023/07/02 09:29:53;;;;;;;0.10;0.10;;;23.10;99.90;;;;;;5016290;28;20274;-80
2023/07/02 09:32:29;;;;;;;0.10;0.10;;;22.80;99.90;;;;;;5020635;28;20202;-80
2023/07/02 09:34:55;;;;;;;0.10;0.10;;;23.10;99.90;;;;;;5018128;28;20213;-80
2023/07/02 09:37:21;;;;;;;0.10;0.10;;;23.10;99.90;;;;;;5016185;28;20272;-80
2023/07/02 09:39:50;;;;;;;0.10;0.10;;;23.60;99.90;;;;;;5016065;28;20222;-81
2023/07/02 09:42:19;;;;;;;0.10;0.10;;;24.00;99.90;;;;;;5019561;28;20205;-81
2023/07/02 09:44:45;;;;;;;0.10;0.10;;;24.40;99.90;;;;;;5019248;28;20688;-81
2023/07/02 09:47:12;;;;;;;0.10;0.10;;;24.50;99.90;;;;;;5017216;28;20195;-81
2023/07/02 09:49:41;;;;;;;0.10;0.10;;;24.20;99.90;;;;;;5018420;28;20574;-81
2023/07/02 09:52:11;;;;;;;0.10;0.10;;;24.10;99.90;;;;;;5018239;28;20636;-81
2023/07/02 09:54:37;;;;;;;0.10;0.10;;;23.60;99.90;;;;;;5027286;28;20213;-80
2023/07/02 09:57:04;;;;;;;0.10;0.10;;;23.40;99.90;;;;;;5016183;28;20189;-81
2023/07/02 09:59:30;;;;;;;0.10;0.10;;;23.00;99.90;;;;;;5017241;28;20325;-81
2023/07/02 10:01:57;;;;;;;0.10;0.10;;;22.80;99.90;;;;;;5021373;28;20191;-80
2023/07/02 10:04:25;;;;;;;0.10;0.10;;;22.70;99.90;;;;;;5020969;28;20210;-81
2023/07/02 10:06:55;;;;;;;0.10;0.10;;;23.10;99.90;;;;;;5019743;28;20205;-81
2023/07/02 10:09:34;;;;;;;0.10;0.10;;;23.30;99.90;;;;;;5016663;28;20224;-81
2023/07/02 10:12:00;;;;;;;0.10;0.10;;;23.20;99.90;;;;;;5020012;28;20858;-81
2023/07/02 10:14:26;;;;;;;0.17;0.17;;;23.10;99.90;;;;;;5019286;28;20217;-81
2023/07/02 10:16:55;;;;;;;0.10;0.10;;;22.80;99.90;;;;;;5024034;28;20187;-80
2023/07/02 10:19:21;;;;;;;0.10;0.10;;;22.80;99.90;;;;;;5023551;28;20820;-80
2023/07/02 10:22:00;;;;;;;0.10;0.10;;;22.60;99.90;;;;;;5027183;28;20268;-81
2023/07/02 10:24:25;;;;;;;0.10;0.10;;;23.20;99.90;;;;;;5023405;28;20260;-80
2023/07/02 10:27:09;;;;;;;0.10;0.10;;;22.90;99.90;;;;;;5022059;28;20198;-80
2023/07/02 10:29:35;;;;;;;0.10;0.10;;;22.70;99.90;;;;;;5018972;28;20190;-80
2023/07/02 10:32:04;;;;;;;0.10;0.10;;;23.20;99.90;;;;;;5014557;28;20209;-80
2023/07/02 10:34:34;;;;;;;0.10;0.10;;;23.50;99.90;;;;;;5020693;28;20707;-80
2023/07/02 10:37:01;;;;;;;0.10;0.10;;;23.50;99.90;;;;;;5019169;28;20183;-80
2023/07/02 10:39:29;;;;;;;0.10;0.10;;;23.50;99.90;;;;;;5016936;28;20186;-80
2023/07/02 10:42:04;;;;;;;0.10;0.10;;;23.40;99.90;;;;;;5020885;28;20194;-79
2023/07/02 10:44:31;;;;;;;0.10;0.10;;;23.50;99.90;;;;;;5022086;28;20205;-80
2023/07/02 10:46:57;;;;;;;0.10;0.10;;;23.70;99.90;;;;;;5026930;28;20214;-79
2023/07/02 10:49:33;;;;;;;0.10;0.10;;;23.80;99.90;;;;;;5023910;28;20210;-79
2023/07/02 10:52:03;;;;;;;0.10;0.10;;;23.30;99.90;;;;;;5021573;28;20545;-79
2023/07/02 10:54:58;;;;;;;0.10;0.10;;;23.20;99.90;;;;;;5023139;28;20209;-80
2023/07/02 10:57:24;;;;;;;0.10;0.10;;;22.90;99.90;;;;;;5013220;28;20257;-79
2023/07/02 10:59:49;;;;;;;0.10;0.10;;;22.90;99.90;;;;;;5021251;28;20186;-79
2023/07/02 11:02:15;;;;;;;0.10;0.10;;;23.20;99.90;;;;;;5020293;28;20197;-79
2023/07/02 11:04:41;;;;;;;0.10;0.10;;;23.40;99.90;;;;;;5021867;28;20210;-80
2023/07/02 11:07:07;;;;;;;0.10;0.10;;;23.70;99.90;;;;;;5020166;28;20198;-80
2023/07/02 11:09:33;;;;;;;0.10;0.10;;;24.20;99.90;;;;;;5021257;28;20191;-80
2023/07/02 11:12:00;;;;;;;0.10;0.10;;;24.10;99.90;;;;;;5023274;28;20241;-80
2023/07/02 11:14:33;;;;;;;0.10;0.10;;;24.50;99.90;;;;;;5020054;28;20238;-79
2023/07/02 11:17:05;;;;;;;0.10;0.10;;;23.90;99.90;;;;;;5031412;28;20706;-79
2023/07/02 11:19:34;;;;;;;0.10;0.10;;;24.00;99.90;;;;;;5022367;28;20198;-79
2023/07/02 11:22:02;;;;;;;0.10;0.10;;;24.30;99.90;;;;;;5020867;28;20664;-80
2023/07/02 11:24:31;;;;;;;0.53;0.53;;;24.30;99.90;;;;;;5019230;28;20320;-80
2023/07/02 11:26:58;;;;;;;0.10;0.10;;;24.20;99.90;;;;;;5021996;28;20186;-80
2023/07/02 11:29:24;;;;;;;0.10;0.10;;;24.30;99.90;;;;;;5018830;28;20281;-79
2023/07/02 11:31:50;;;;;;;0.10;0.10;;;24.30;99.90;;;;;;5011698;28;20317;-80
2023/07/02 11:34:17;;;;;;;0.10;0.10;;;24.50;99.90;;;;;;5023869;28;20976;-80
2023/07/02 11:36:43;;;;;;;0.10;0.10;;;24.80;99.90;;;;;;5025565;28;20190;-80
2023/07/02 11:39:08;;;;;;;0.10;0.10;;;24.90;99.90;;;;;;5026884;28;20178;-80
2023/07/02 11:41:41;;;;;;;0.10;0.10;;;24.80;99.90;;;;;;5025778;28;20210;-80
2023/07/02 11:44:07;;;;;;;0.10;0.10;;;25.00;99.90;;;;;;5019106;28;20199;-79
2023/07/02 11:46:33;;;;;;;0.10;0.10;;;25.20;99.90;;;;;;5019038;28;20183;-80
2023/07/02 11:49:08;;;;;;;0.10;0.10;;;25.70;99.90;;;;;;5024872;28;20182;-80
2023/07/02 11:51:37;;;;;;;0.10;0.10;;;25.80;99.90;;;;;;5025195;28;20198;-80
2023/07/02 11:54:04;;;;;;;0.10;0.10;;;25.90;99.90;;;;;;5025092;28;20679;-82
2023/07/02 11:56:30;;;;;;;0.10;0.10;;;25.50;99.90;;;;;;5027382;28;20176;-83
2023/07/02 11:58:55;;;;;;;0.10;0.10;;;25.30;99.90;;;;;;5029315;28;20190;-82
2023/07/02 12:01:21;;;;;;;0.10;0.10;;;25.20;99.90;;;;;;5026410;28;20190;-82
2023/07/02 12:03:46;;;;;;;0.10;0.10;;;25.20;99.90;;;;;;5022450;28;20210;-82
2023/07/02 12:06:12;;;;;;;0.10;0.10;;;25.10;99.90;;;;;;5026341;28;20202;-82
2023/07/02 12:08:37;;;;;;;0.10;0.10;;;25.30;99.90;;;;;;5031052;28;20189;-82
2023/07/02 12:11:03;;;;;;;0.10;0.10;;;25.20;99.90;;;;;;5026900;28;20881;-82
2023/07/02 12:13:29;;;;;;;0.10;0.10;;;25.10;99.90;;;;;;5026197;28;20191;-82
2023/07/02 12:15:54;;;;;;;0.10;0.10;;;25.10;99.90;;;;;;5027251;28;20195;-82
2023/07/02 12:18:20;;;;;;;0.10;0.10;;;24.90;99.90;;;;;;5028622;28;20190;-82
2023/07/02 12:20:45;;;;;;;0.10;0.10;;;25.10;99.90;;;;;;5028184;28;20186;-82
2023/07/02 12:23:11;;;;;;;0.10;0.10;;;25.20;99.90;;;;;;5026608;28;20194;-83
2023/07/02 12:25:37;;;;;;;0.10;0.10;;;25.30;99.90;;;;;;5027273;28;20614;-83
2023/07/02 12:28:06;;;;;;;0.10;0.10;;;25.20;99.90;;;;;;5026902;28;20266;-82
2023/07/02 12:30:32;;;;;;;0.10;0.10;;;25.10;99.90;;;;;;5026522;28;20550;-83
2023/07/02 12:32:58;;;;;;;0.10;0.10;;;25.20;99.90;;;;;;5026300;28;20688;-83
2023/07/02 12:35:24;;;;;;;0.10;0.10;;;25.20;99.90;;;;;;5026388;28;20365;-80
2023/07/02 12:37:51;;;;;;;0.10;0.10;;;25.10;99.90;;;;;;5024598;28;20542;-80
2023/07/02 12:40:18;;;;;;;0.10;0.10;;;25.10;99.90;;;;;;5026894;28;20247;-82
2023/07/02 12:42:45;;;;;;;0.10;0.10;;;25.10;99.90;;;;;;5031511;28;20667;-82
2023/07/02 12:45:11;;;;;;;0.10;0.10;;;24.80;99.90;;;;;;5029520;28;20214;-81